sensor_id;sensor_type;location;lat;lon;timestamp;P1;durP1;ratioP1;P2;durP2;ratioP2
35245;SDS011;21379;50.962;6.960;2023-11-21T00:01:05;7.95;;;4.43;;
35245;SDS011;21379;50.962;6.960;2023-11-21T00:03:35;9.82;;;4.22;;
35245;SDS011;21379;50.962;6.960;2023-11-21T00:06:02;8.00;;;4.53;;
35245;SDS011;21379;50.962;6.960;2023-11-21T00:08:29;9.13;;;4.80;;
35245;SDS011;21379;50.962;6.960;2023-11-21T00:10:56;8.98;;;4.63;;
35245;SDS011;21379;50.962;6.960;2023-11-21T00:13:25;7.20;;;4.43;;
35245;SDS011;21379;50.962;6.960;2023-11-21T00:15:52;12.88;;;5.60;;
35245;SDS011;21379;50.962;6.960;2023-11-21T00:18:19;10.10;;;6.25;;
35245;SDS011;21379;50.962;6.960;2023-11-21T00:20:48;12.18;;;5.68;;
35245;SDS011;21379;50.962;6.960;2023-11-21T00:25:41;11.27;;;6.47;;
35245;SDS011;21379;50.962;6.960;2023-11-21T00:28:08;12.80;;;6.60;;
35245;SDS011;21379;50.962;6.960;2023-11-21T00:30:35;18.23;;;7.78;;
35245;SDS011;21379;50.962;6.960;2023-11-21T00:33:01;14.93;;;6.90;;
35245;SDS011;21379;50.962;6.960;2023-11-21T00:35:29;16.23;;;7.20;;
35245;SDS011;21379;50.962;6.960;2023-11-21T00:37:57;14.10;;;7.30;;
35245;SDS011;21379;50.962;6.960;2023-11-21T00:40:24;15.02;;;7.22;;
35245;SDS011;21379;50.962;6.960;2023-11-21T00:42:51;12.63;;;7.18;;
35245;SDS011;21379;50.962;6.960;2023-11-21T00:45:18;14.85;;;7.53;;
35245;SDS011;21379;50.962;6.960;2023-11-21T00:47:45;14.43;;;7.43;;
35245;SDS011;21379;50.962;6.960;2023-11-21T00:50:12;20.65;;;8.95;;
35245;SDS011;21379;50.962;6.960;2023-11-21T00:52:39;18.08;;;8.65;;
35245;SDS011;21379;50.962;6.960;2023-11-21T00:55:07;14.30;;;7.80;;
35245;SDS011;21379;50.962;6.960;2023-11-21T00:57:36;15.20;;;8.52;;
35245;SDS011;21379;50.962;6.960;2023-11-21T01:00:03;17.02;;;7.82;;
35245;SDS011;21379;50.962;6.960;2023-11-21T01:02:32;14.45;;;6.68;;
35245;SDS011;21379;50.962;6.960;2023-11-21T01:07:27;15.25;;;8.63;;
35245;SDS011;21379;50.962;6.960;2023-11-21T01:09:54;17.08;;;8.07;;
35245;SDS011;21379;50.962;6.960;2023-11-21T01:12:22;15.55;;;7.43;;
35245;SDS011;21379;50.962;6.960;2023-11-21T01:14:57;14.15;;;7.85;;
35245;SDS011;21379;50.962;6.960;2023-11-21T01:17:25;16.33;;;8.05;;
35245;SDS011;21379;50.962;6.960;2023-11-21T01:19:52;15.05;;;7.20;;
35245;SDS011;21379;50.962;6.960;2023-11-21T01:22:19;13.48;;;7.38;;
35245;SDS011;21379;50.962;6.960;2023-11-21T01:24:50;16.58;;;7.85;;
35245;SDS011;21379;50.962;6.960;2023-11-21T01:27:17;13.45;;;7.72;;
35245;SDS011;21379;50.962;6.960;2023-11-21T01:29:45;16.63;;;7.95;;
35245;SDS011;21379;50.962;6.960;2023-11-21T01:34:39;16.15;;;8.32;;
35245;SDS011;21379;50.962;6.960;2023-11-21T01:37:05;14.52;;;7.10;;
35245;SDS011;21379;50.962;6.960;2023-11-21T01:39:32;17.20;;;7.75;;
35245;SDS011;21379;50.962;6.960;2023-11-21T01:41:59;16.23;;;8.05;;
35245;SDS011;21379;50.962;6.960;2023-11-21T01:44:26;13.82;;;7.72;;
35245;SDS011;21379;50.962;6.960;2023-11-21T01:46:54;19.73;;;8.05;;
35245;SDS011;21379;50.962;6.960;2023-11-21T01:49:22;16.25;;;7.90;;
35245;SDS011;21379;50.962;6.960;2023-11-21T01:51:49;14.00;;;7.82;;
35245;SDS011;21379;50.962;6.960;2023-11-21T01:54:17;16.73;;;8.82;;
35245;SDS011;21379;50.962;6.960;2023-11-21T01:56:44;13.73;;;8.48;;
35245;SDS011;21379;50.962;6.960;2023-11-21T01:59:12;12.25;;;7.43;;
35245;SDS011;21379;50.962;6.960;2023-11-21T02:01:41;14.68;;;7.30;;
35245;SDS011;21379;50.962;6.960;2023-11-21T02:04:10;17.67;;;8.05;;
35245;SDS011;21379;50.962;6.960;2023-11-21T02:06:37;14.23;;;8.20;;
35245;SDS011;21379;50.962;6.960;2023-11-21T02:09:04;16.95;;;8.25;;
35245;SDS011;21379;50.962;6.960;2023-11-21T02:11:31;16.85;;;8.40;;
35245;SDS011;21379;50.962;6.960;2023-11-21T02:14:00;15.07;;;7.43;;
35245;SDS011;21379;50.962;6.960;2023-11-21T02:16:28;14.75;;;7.72;;
35245;SDS011;21379;50.962;6.960;2023-11-21T02:18:56;18.63;;;8.02;;
35245;SDS011;21379;50.962;6.960;2023-11-21T02:21:25;14.52;;;8.25;;
35245;SDS011;21379;50.962;6.960;2023-11-21T02:23:53;17.20;;;8.23;;
35245;SDS011;21379;50.962;6.960;2023-11-21T02:28:47;19.52;;;9.27;;
35245;SDS011;21379;50.962;6.960;2023-11-21T02:31:13;20.10;;;9.40;;
35245;SDS011;21379;50.962;6.960;2023-11-21T02:33:41;19.10;;;9.30;;
35245;SDS011;21379;50.962;6.960;2023-11-21T02:36:09;20.48;;;9.85;;
35245;SDS011;21379;50.962;6.960;2023-11-21T02:38:36;21.45;;;8.95;;
35245;SDS011;21379;50.962;6.960;2023-11-21T02:41:04;18.73;;;9.35;;
35245;SDS011;21379;50.962;6.960;2023-11-21T02:43:31;22.25;;;10.40;;
35245;SDS011;21379;50.962;6.960;2023-11-21T02:45:58;21.58;;;9.52;;
35245;SDS011;21379;50.962;6.960;2023-11-21T02:48:24;20.33;;;8.95;;
35245;SDS011;21379;50.962;6.960;2023-11-21T02:50:51;19.00;;;7.90;;
35245;SDS011;21379;50.962;6.960;2023-11-21T02:53:18;22.42;;;9.05;;
35245;SDS011;21379;50.962;6.960;2023-11-21T02:55:45;15.07;;;8.48;;
35245;SDS011;21379;50.962;6.960;2023-11-21T02:58:15;19.88;;;9.10;;
35245;SDS011;21379;50.962;6.960;2023-11-21T03:00:42;20.40;;;9.05;;
35245;SDS011;21379;50.962;6.960;2023-11-21T03:03:09;20.23;;;8.43;;
35245;SDS011;21379;50.962;6.960;2023-11-21T03:05:35;17.98;;;9.23;;
35245;SDS011;21379;50.962;6.960;2023-11-21T03:08:02;16.42;;;8.60;;
35245;SDS011;21379;50.962;6.960;2023-11-21T03:10:29;22.38;;;9.27;;
35245;SDS011;21379;50.962;6.960;2023-11-21T03:12:56;17.33;;;8.27;;
35245;SDS011;21379;50.962;6.960;2023-11-21T03:15:25;14.95;;;8.43;;
35245;SDS011;21379;50.962;6.960;2023-11-21T03:17:51;17.38;;;8.32;;
35245;SDS011;21379;50.962;6.960;2023-11-21T03:20:18;13.70;;;8.75;;
35245;SDS011;21379;50.962;6.960;2023-11-21T03:22:45;18.65;;;9.25;;
35245;SDS011;21379;50.962;6.960;2023-11-21T03:25:12;18.40;;;8.20;;
35245;SDS011;21379;50.962;6.960;2023-11-21T03:27:39;20.33;;;9.60;;
35245;SDS011;21379;50.962;6.960;2023-11-21T03:30:07;18.65;;;8.02;;
35245;SDS011;21379;50.962;6.960;2023-11-21T03:32:37;18.85;;;8.73;;
35245;SDS011;21379;50.962;6.960;2023-11-21T03:35:04;18.00;;;9.02;;
35245;SDS011;21379;50.962;6.960;2023-11-21T03:37:31;16.75;;;8.23;;
35245;SDS011;21379;50.962;6.960;2023-11-21T03:39:58;21.20;;;9.52;;
35245;SDS011;21379;50.962;6.960;2023-11-21T03:42:24;22.17;;;9.52;;
35245;SDS011;21379;50.962;6.960;2023-11-21T03:44:51;20.58;;;8.98;;
35245;SDS011;21379;50.962;6.960;2023-11-21T03:47:19;18.42;;;8.48;;
35245;SDS011;21379;50.962;6.960;2023-11-21T03:49:47;21.70;;;9.77;;
35245;SDS011;21379;50.962;6.960;2023-11-21T03:52:15;18.42;;;9.40;;
35245;SDS011;21379;50.962;6.960;2023-11-21T03:54:42;19.60;;;9.95;;
35245;SDS011;21379;50.962;6.960;2023-11-21T03:57:09;21.17;;;10.43;;
35245;SDS011;21379;50.962;6.960;2023-11-21T03:59:36;20.95;;;9.60;;
35245;SDS011;21379;50.962;6.960;2023-11-21T04:02:03;21.30;;;9.38;;
35245;SDS011;21379;50.962;6.960;2023-11-21T04:04:30;24.90;;;9.45;;
35245;SDS011;21379;50.962;6.960;2023-11-21T04:06:58;23.40;;;9.70;;
35245;SDS011;21379;50.962;6.960;2023-11-21T04:11:51;22.15;;;10.63;;
35245;SDS011;21379;50.962;6.960;2023-11-21T04:14:18;21.20;;;10.32;;
35245;SDS011;21379;50.962;6.960;2023-11-21T04:16:45;26.40;;;9.55;;
35245;SDS011;21379;50.962;6.960;2023-11-21T04:19:11;24.67;;;11.07;;
35245;SDS011;21379;50.962;6.960;2023-11-21T04:24:08;19.40;;;9.63;;
35245;SDS011;21379;50.962;6.960;2023-11-21T04:26:34;20.13;;;9.90;;
35245;SDS011;21379;50.962;6.960;2023-11-21T04:29:01;25.33;;;11.52;;
35245;SDS011;21379;50.962;6.960;2023-11-21T04:31:28;19.80;;;9.93;;
35245;SDS011;21379;50.962;6.960;2023-11-21T04:33:54;23.95;;;10.50;;
35245;SDS011;21379;50.962;6.960;2023-11-21T04:36:21;20.60;;;10.50;;
35245;SDS011;21379;50.962;6.960;2023-11-21T04:38:48;23.70;;;10.10;;
35245;SDS011;21379;50.962;6.960;2023-11-21T04:41:16;32.63;;;11.55;;
35245;SDS011;21379;50.962;6.960;2023-11-21T04:43:43;22.25;;;11.73;;
35245;SDS011;21379;50.962;6.960;2023-11-21T04:46:09;25.20;;;10.85;;
35245;SDS011;21379;50.962;6.960;2023-11-21T04:48:36;21.35;;;10.27;;
35245;SDS011;21379;50.962;6.960;2023-11-21T04:51:03;18.98;;;10.25;;
35245;SDS011;21379;50.962;6.960;2023-11-21T04:53:30;26.92;;;11.63;;
35245;SDS011;21379;50.962;6.960;2023-11-21T04:55:57;24.50;;;10.90;;
35245;SDS011;21379;50.962;6.960;2023-11-21T04:58:25;25.52;;;10.77;;
35245;SDS011;21379;50.962;6.960;2023-11-21T05:00:52;28.40;;;11.35;;
35245;SDS011;21379;50.962;6.960;2023-11-21T05:03:18;22.92;;;10.00;;
35245;SDS011;21379;50.962;6.960;2023-11-21T05:05:46;30.55;;;10.70;;
35245;SDS011;21379;50.962;6.960;2023-11-21T05:08:13;23.50;;;10.63;;
35245;SDS011;21379;50.962;6.960;2023-11-21T05:10:39;25.45;;;10.85;;
35245;SDS011;21379;50.962;6.960;2023-11-21T05:13:06;23.50;;;10.55;;
35245;SDS011;21379;50.962;6.960;2023-11-21T05:15:37;25.83;;;10.50;;
35245;SDS011;21379;50.962;6.960;2023-11-21T05:18:04;23.60;;;12.02;;
35245;SDS011;21379;50.962;6.960;2023-11-21T05:20:31;26.63;;;11.40;;
35245;SDS011;21379;50.962;6.960;2023-11-21T05:22:58;27.55;;;12.07;;
35245;SDS011;21379;50.962;6.960;2023-11-21T05:25:25;28.08;;;11.43;;
35245;SDS011;21379;50.962;6.960;2023-11-21T05:27:51;30.80;;;12.65;;
35245;SDS011;21379;50.962;6.960;2023-11-21T05:30:19;23.30;;;11.50;;
35245;SDS011;21379;50.962;6.960;2023-11-21T05:32:48;24.17;;;11.00;;
35245;SDS011;21379;50.962;6.960;2023-11-21T05:35:15;25.17;;;12.60;;
35245;SDS011;21379;50.962;6.960;2023-11-21T05:37:43;28.73;;;12.20;;
35245;SDS011;21379;50.962;6.960;2023-11-21T05:40:10;26.63;;;11.98;;
35245;SDS011;21379;50.962;6.960;2023-11-21T05:42:38;29.95;;;12.82;;
35245;SDS011;21379;50.962;6.960;2023-11-21T05:45:06;29.40;;;12.40;;
35245;SDS011;21379;50.962;6.960;2023-11-21T05:47:36;25.17;;;11.85;;
35245;SDS011;21379;50.962;6.960;2023-11-21T05:50:06;24.50;;;11.57;;
35245;SDS011;21379;50.962;6.960;2023-11-21T05:52:35;28.27;;;12.25;;
35245;SDS011;21379;50.962;6.960;2023-11-21T05:55:02;26.88;;;12.73;;
35245;SDS011;21379;50.962;6.960;2023-11-21T05:57:32;24.13;;;11.75;;
35245;SDS011;21379;50.962;6.960;2023-11-21T05:59:59;22.98;;;10.57;;
35245;SDS011;21379;50.962;6.960;2023-11-21T06:02:30;25.73;;;11.15;;
35245;SDS011;21379;50.962;6.960;2023-11-21T06:04:57;25.13;;;11.82;;
35245;SDS011;21379;50.962;6.960;2023-11-21T06:07:25;24.60;;;11.60;;
35245;SDS011;21379;50.962;6.960;2023-11-21T06:09:52;23.15;;;12.07;;
35245;SDS011;21379;50.962;6.960;2023-11-21T06:12:19;23.42;;;11.45;;
35245;SDS011;21379;50.962;6.960;2023-11-21T06:14:46;24.92;;;11.77;;
35245;SDS011;21379;50.962;6.960;2023-11-21T06:17:13;31.13;;;13.10;;
35245;SDS011;21379;50.962;6.960;2023-11-21T06:19:40;25.60;;;11.07;;
35245;SDS011;21379;50.962;6.960;2023-11-21T06:22:07;26.92;;;12.55;;
35245;SDS011;21379;50.962;6.960;2023-11-21T06:24:36;25.77;;;10.23;;
35245;SDS011;21379;50.962;6.960;2023-11-21T06:27:03;31.40;;;11.13;;
35245;SDS011;21379;50.962;6.960;2023-11-21T06:29:34;27.58;;;11.63;;
35245;SDS011;21379;50.962;6.960;2023-11-21T06:32:00;26.67;;;11.32;;
35245;SDS011;21379;50.962;6.960;2023-11-21T06:34:30;23.95;;;10.40;;
35245;SDS011;21379;50.962;6.960;2023-11-21T06:36:56;24.13;;;10.95;;
35245;SDS011;21379;50.962;6.960;2023-11-21T06:39:25;25.60;;;10.77;;
35245;SDS011;21379;50.962;6.960;2023-11-21T06:41:54;22.02;;;9.88;;
35245;SDS011;21379;50.962;6.960;2023-11-21T06:44:21;25.00;;;10.25;;
35245;SDS011;21379;50.962;6.960;2023-11-21T06:46:50;20.08;;;9.45;;
35245;SDS011;21379;50.962;6.960;2023-11-21T06:49:17;25.05;;;10.50;;
35245;SDS011;21379;50.962;6.960;2023-11-21T06:51:44;24.85;;;10.48;;
35245;SDS011;21379;50.962;6.960;2023-11-21T06:54:10;24.08;;;11.38;;
35245;SDS011;21379;50.962;6.960;2023-11-21T06:56:37;26.63;;;11.88;;
35245;SDS011;21379;50.962;6.960;2023-11-21T06:59:06;26.17;;;10.80;;
35245;SDS011;21379;50.962;6.960;2023-11-21T07:01:37;25.75;;;10.80;;
35245;SDS011;21379;50.962;6.960;2023-11-21T07:04:06;23.77;;;10.10;;
35245;SDS011;21379;50.962;6.960;2023-11-21T07:06:37;26.23;;;10.55;;
35245;SDS011;21379;50.962;6.960;2023-11-21T07:09:03;21.52;;;10.00;;
35245;SDS011;21379;50.962;6.960;2023-11-21T07:11:30;24.88;;;11.27;;
35245;SDS011;21379;50.962;6.960;2023-11-21T07:13:58;26.35;;;10.95;;
35245;SDS011;21379;50.962;6.960;2023-11-21T07:16:26;25.25;;;10.60;;
35245;SDS011;21379;50.962;6.960;2023-11-21T07:18:52;24.25;;;11.75;;
35245;SDS011;21379;50.962;6.960;2023-11-21T07:21:20;26.67;;;12.45;;
35245;SDS011;21379;50.962;6.960;2023-11-21T07:23:47;25.75;;;11.93;;
35245;SDS011;21379;50.962;6.960;2023-11-21T07:26:13;25.50;;;11.50;;
35245;SDS011;21379;50.962;6.960;2023-11-21T07:28:40;32.75;;;12.43;;
35245;SDS011;21379;50.962;6.960;2023-11-21T07:31:07;29.77;;;10.80;;
35245;SDS011;21379;50.962;6.960;2023-11-21T07:33:35;25.55;;;10.10;;
35245;SDS011;21379;50.962;6.960;2023-11-21T07:36:04;33.45;;;12.82;;
35245;SDS011;21379;50.962;6.960;2023-11-21T07:38:31;28.15;;;11.55;;
35245;SDS011;21379;50.962;6.960;2023-11-21T07:40:58;31.20;;;12.48;;
35245;SDS011;21379;50.962;6.960;2023-11-21T07:43:26;30.05;;;12.63;;
35245;SDS011;21379;50.962;6.960;2023-11-21T07:45:59;33.78;;;12.75;;
35245;SDS011;21379;50.962;6.960;2023-11-21T07:50:55;32.03;;;13.23;;
35245;SDS011;21379;50.962;6.960;2023-11-21T07:53:22;32.85;;;13.00;;
35245;SDS011;21379;50.962;6.960;2023-11-21T07:55:49;36.30;;;13.93;;
35245;SDS011;21379;50.962;6.960;2023-11-21T07:58:15;32.30;;;12.48;;
35245;SDS011;21379;50.962;6.960;2023-11-21T08:00:42;28.40;;;12.68;;
35245;SDS011;21379;50.962;6.960;2023-11-21T08:03:09;32.25;;;12.93;;
35245;SDS011;21379;50.962;6.960;2023-11-21T08:05:36;37.28;;;13.52;;
35245;SDS011;21379;50.962;6.960;2023-11-21T08:08:04;36.22;;;14.07;;
35245;SDS011;21379;50.962;6.960;2023-11-21T08:10:31;32.45;;;13.13;;
35245;SDS011;21379;50.962;6.960;2023-11-21T08:12:58;32.40;;;11.88;;
35245;SDS011;21379;50.962;6.960;2023-11-21T08:15:24;34.08;;;14.02;;
35245;SDS011;21379;50.962;6.960;2023-11-21T08:17:51;39.63;;;13.55;;
35245;SDS011;21379;50.962;6.960;2023-11-21T08:20:18;36.78;;;13.30;;
35245;SDS011;21379;50.962;6.960;2023-11-21T08:22:45;33.55;;;13.38;;
35245;SDS011;21379;50.962;6.960;2023-11-21T08:25:14;36.60;;;14.10;;
35245;SDS011;21379;50.962;6.960;2023-11-21T08:27:42;34.92;;;13.73;;
35245;SDS011;21379;50.962;6.960;2023-11-21T08:30:09;37.78;;;13.85;;
35245;SDS011;21379;50.962;6.960;2023-11-21T08:32:37;39.15;;;14.48;;
35245;SDS011;21379;50.962;6.960;2023-11-21T08:35:04;35.97;;;13.35;;
35245;SDS011;21379;50.962;6.960;2023-11-21T08:37:31;34.38;;;12.82;;
35245;SDS011;21379;50.962;6.960;2023-11-21T08:40:04;35.88;;;13.27;;
35245;SDS011;21379;50.962;6.960;2023-11-21T08:42:35;35.50;;;13.15;;
35245;SDS011;21379;50.962;6.960;2023-11-21T08:45:02;35.40;;;12.73;;
35245;SDS011;21379;50.962;6.960;2023-11-21T08:47:31;36.35;;;13.00;;
35245;SDS011;21379;50.962;6.960;2023-11-21T08:49:57;33.67;;;13.88;;
35245;SDS011;21379;50.962;6.960;2023-11-21T08:52:24;31.30;;;12.75;;
35245;SDS011;21379;50.962;6.960;2023-11-21T08:54:51;36.50;;;13.75;;
35245;SDS011;21379;50.962;6.960;2023-11-21T08:57:21;38.53;;;15.18;;
35245;SDS011;21379;50.962;6.960;2023-11-21T08:59:49;38.47;;;13.50;;
35245;SDS011;21379;50.962;6.960;2023-11-21T09:02:20;35.50;;;13.35;;
35245;SDS011;21379;50.962;6.960;2023-11-21T09:04:47;31.27;;;12.73;;
35245;SDS011;21379;50.962;6.960;2023-11-21T09:07:14;30.27;;;12.55;;
35245;SDS011;21379;50.962;6.960;2023-11-21T09:09:41;39.63;;;13.95;;
35245;SDS011;21379;50.962;6.960;2023-11-21T09:12:07;35.30;;;12.90;;
35245;SDS011;21379;50.962;6.960;2023-11-21T09:14:37;33.97;;;12.77;;
35245;SDS011;21379;50.962;6.960;2023-11-21T09:17:05;36.45;;;13.95;;
35245;SDS011;21379;50.962;6.960;2023-11-21T09:19:36;35.15;;;13.80;;
35245;SDS011;21379;50.962;6.960;2023-11-21T09:22:02;34.97;;;14.50;;
35245;SDS011;21379;50.962;6.960;2023-11-21T09:24:30;42.40;;;13.38;;
35245;SDS011;21379;50.962;6.960;2023-11-21T09:26:56;35.63;;;14.50;;
35245;SDS011;21379;50.962;6.960;2023-11-21T09:29:25;38.35;;;14.85;;
35245;SDS011;21379;50.962;6.960;2023-11-21T09:31:51;40.78;;;14.25;;
35245;SDS011;21379;50.962;6.960;2023-11-21T09:34:21;41.53;;;14.80;;
35245;SDS011;21379;50.962;6.960;2023-11-21T09:36:48;31.23;;;14.00;;
35245;SDS011;21379;50.962;6.960;2023-11-21T09:39:15;41.25;;;15.30;;
35245;SDS011;21379;50.962;6.960;2023-11-21T09:44:11;37.10;;;12.85;;
35245;SDS011;21379;50.962;6.960;2023-11-21T09:46:40;40.30;;;15.13;;
35245;SDS011;21379;50.962;6.960;2023-11-21T09:49:09;36.38;;;15.32;;
35245;SDS011;21379;50.962;6.960;2023-11-21T09:51:40;35.88;;;14.02;;
35245;SDS011;21379;50.962;6.960;2023-11-21T09:54:09;38.30;;;14.68;;
35245;SDS011;21379;50.962;6.960;2023-11-21T09:56:37;38.55;;;12.90;;
35245;SDS011;21379;50.962;6.960;2023-11-21T09:59:03;39.72;;;14.00;;
35245;SDS011;21379;50.962;6.960;2023-11-21T10:01:33;38.28;;;14.02;;
35245;SDS011;21379;50.962;6.960;2023-11-21T10:04:02;37.20;;;14.27;;
35245;SDS011;21379;50.962;6.960;2023-11-21T10:06:30;45.35;;;16.67;;
35245;SDS011;21379;50.962;6.960;2023-11-21T10:08:59;37.10;;;15.02;;
35245;SDS011;21379;50.962;6.960;2023-11-21T10:11:26;37.42;;;13.18;;
35245;SDS011;21379;50.962;6.960;2023-11-21T10:13:55;39.85;;;16.13;;
35245;SDS011;21379;50.962;6.960;2023-11-21T10:16:23;38.45;;;14.77;;
35245;SDS011;21379;50.962;6.960;2023-11-21T10:18:52;42.95;;;16.08;;
35245;SDS011;21379;50.962;6.960;2023-11-21T10:21:20;40.10;;;15.18;;
35245;SDS011;21379;50.962;6.960;2023-11-21T10:23:47;37.53;;;14.32;;
35245;SDS011;21379;50.962;6.960;2023-11-21T10:26:16;42.70;;;15.20;;
35245;SDS011;21379;50.962;6.960;2023-11-21T10:28:54;42.20;;;15.85;;
35245;SDS011;21379;50.962;6.960;2023-11-21T10:31:22;40.33;;;13.63;;
35245;SDS011;21379;50.962;6.960;2023-11-21T10:33:49;44.25;;;15.93;;
35245;SDS011;21379;50.962;6.960;2023-11-21T10:36:22;39.25;;;14.82;;
35245;SDS011;21379;50.962;6.960;2023-11-21T10:38:51;44.58;;;16.17;;
35245;SDS011;21379;50.962;6.960;2023-11-21T10:41:21;46.40;;;16.00;;
35245;SDS011;21379;50.962;6.960;2023-11-21T10:43:47;35.30;;;15.48;;
35245;SDS011;21379;50.962;6.960;2023-11-21T10:46:14;48.25;;;15.50;;
35245;SDS011;21379;50.962;6.960;2023-11-21T10:48:41;40.22;;;14.75;;
35245;SDS011;21379;50.962;6.960;2023-11-21T10:51:08;36.65;;;14.38;;
35245;SDS011;21379;50.962;6.960;2023-11-21T10:53:38;36.22;;;14.30;;
35245;SDS011;21379;50.962;6.960;2023-11-21T10:56:06;44.03;;;14.75;;
35245;SDS011;21379;50.962;6.960;2023-11-21T10:58:37;48.10;;;15.65;;
35245;SDS011;21379;50.962;6.960;2023-11-21T11:01:05;42.30;;;13.75;;
35245;SDS011;21379;50.962;6.960;2023-11-21T11:03:36;37.47;;;13.48;;
35245;SDS011;21379;50.962;6.960;2023-11-21T11:06:04;42.58;;;15.45;;
35245;SDS011;21379;50.962;6.960;2023-11-21T11:08:36;41.83;;;14.88;;
35245;SDS011;21379;50.962;6.960;2023-11-21T11:11:03;38.47;;;14.75;;
35245;SDS011;21379;50.962;6.960;2023-11-21T11:13:30;42.40;;;14.35;;
35245;SDS011;21379;50.962;6.960;2023-11-21T11:15:59;42.85;;;14.50;;
35245;SDS011;21379;50.962;6.960;2023-11-21T11:18:27;43.75;;;14.98;;
35245;SDS011;21379;50.962;6.960;2023-11-21T11:20:54;46.42;;;15.95;;
35245;SDS011;21379;50.962;6.960;2023-11-21T11:23:29;41.42;;;15.63;;
35245;SDS011;21379;50.962;6.960;2023-11-21T11:28:35;42.42;;;14.10;;
35245;SDS011;21379;50.962;6.960;2023-11-21T11:31:10;36.75;;;14.07;;
35245;SDS011;21379;50.962;6.960;2023-11-21T11:33:42;37.35;;;13.20;;
35245;SDS011;21379;50.962;6.960;2023-11-21T11:36:15;41.40;;;14.48;;
35245;SDS011;21379;50.962;6.960;2023-11-21T11:38:46;43.85;;;14.77;;
35245;SDS011;21379;50.962;6.960;2023-11-21T11:41:15;40.72;;;14.60;;
35245;SDS011;21379;50.962;6.960;2023-11-21T11:43:50;34.40;;;12.60;;
35245;SDS011;21379;50.962;6.960;2023-11-21T11:46:18;40.03;;;13.40;;
35245;SDS011;21379;50.962;6.960;2023-11-21T11:48:46;34.70;;;12.60;;
35245;SDS011;21379;50.962;6.960;2023-11-21T11:51:14;38.90;;;12.48;;
35245;SDS011;21379;50.962;6.960;2023-11-21T11:53:44;34.85;;;12.60;;
35245;SDS011;21379;50.962;6.960;2023-11-21T11:56:22;37.97;;;13.10;;
35245;SDS011;21379;50.962;6.960;2023-11-21T11:58:51;38.60;;;13.95;;
35245;SDS011;21379;50.962;6.960;2023-11-21T12:01:20;38.58;;;14.02;;
35245;SDS011;21379;50.962;6.960;2023-11-21T12:07:00;34.35;;;13.00;;
35245;SDS011;21379;50.962;6.960;2023-11-21T12:09:28;39.17;;;12.95;;
35245;SDS011;21379;50.962;6.960;2023-11-21T12:11:56;39.67;;;14.63;;
35245;SDS011;21379;50.962;6.960;2023-11-21T12:14:23;41.50;;;13.18;;
35245;SDS011;21379;50.962;6.960;2023-11-21T12:16:52;44.63;;;14.23;;
35245;SDS011;21379;50.962;6.960;2023-11-21T12:19:19;42.35;;;14.70;;
35245;SDS011;21379;50.962;6.960;2023-11-21T12:21:47;44.40;;;14.68;;
35245;SDS011;21379;50.962;6.960;2023-11-21T12:26:42;36.75;;;13.00;;
35245;SDS011;21379;50.962;6.960;2023-11-21T12:29:10;39.35;;;14.25;;
35245;SDS011;21379;50.962;6.960;2023-11-21T12:31:37;35.33;;;13.43;;
35245;SDS011;21379;50.962;6.960;2023-11-21T12:34:05;43.00;;;12.40;;
35245;SDS011;21379;50.962;6.960;2023-11-21T12:36:32;36.17;;;13.50;;
35245;SDS011;21379;50.962;6.960;2023-11-21T12:39:00;34.55;;;13.02;;
35245;SDS011;21379;50.962;6.960;2023-11-21T12:41:28;34.67;;;12.30;;
35245;SDS011;21379;50.962;6.960;2023-11-21T12:43:55;35.25;;;12.77;;
35245;SDS011;21379;50.962;6.960;2023-11-21T12:46:22;38.00;;;14.13;;
35245;SDS011;21379;50.962;6.960;2023-11-21T12:48:51;37.80;;;12.85;;
35245;SDS011;21379;50.962;6.960;2023-11-21T12:51:19;30.73;;;12.90;;
35245;SDS011;21379;50.962;6.960;2023-11-21T12:53:47;34.70;;;13.23;;
35245;SDS011;21379;50.962;6.960;2023-11-21T12:56:14;30.65;;;11.15;;
35245;SDS011;21379;50.962;6.960;2023-11-21T12:58:44;35.22;;;12.77;;
35245;SDS011;21379;50.962;6.960;2023-11-21T13:01:12;34.65;;;12.18;;
35245;SDS011;21379;50.962;6.960;2023-11-21T13:03:45;34.92;;;11.77;;
35245;SDS011;21379;50.962;6.960;2023-11-21T13:06:14;29.75;;;11.85;;
35245;SDS011;21379;50.962;6.960;2023-11-21T13:08:43;40.25;;;13.98;;
35245;SDS011;21379;50.962;6.960;2023-11-21T13:11:10;37.75;;;13.77;;
35245;SDS011;21379;50.962;6.960;2023-11-21T13:16:07;33.72;;;12.73;;
35245;SDS011;21379;50.962;6.960;2023-11-21T13:18:34;36.47;;;13.98;;
35245;SDS011;21379;50.962;6.960;2023-11-21T13:21:02;32.83;;;11.80;;
35245;SDS011;21379;50.962;6.960;2023-11-21T13:23:35;38.22;;;12.55;;
35245;SDS011;21379;50.962;6.960;2023-11-21T13:26:04;34.25;;;13.18;;
35245;SDS011;21379;50.962;6.960;2023-11-21T13:28:32;30.42;;;11.75;;
35245;SDS011;21379;50.962;6.960;2023-11-21T13:30:59;34.13;;;13.93;;
35245;SDS011;21379;50.962;6.960;2023-11-21T13:33:34;33.92;;;12.77;;
35245;SDS011;21379;50.962;6.960;2023-11-21T13:36:06;45.28;;;13.38;;
35245;SDS011;21379;50.962;6.960;2023-11-21T13:38:58;31.48;;;11.77;;
35245;SDS011;21379;50.962;6.960;2023-11-21T13:41:31;34.53;;;12.02;;
35245;SDS011;21379;50.962;6.960;2023-11-21T13:43:57;33.47;;;13.13;;
35245;SDS011;21379;50.962;6.960;2023-11-21T13:46:35;37.55;;;13.02;;
35245;SDS011;21379;50.962;6.960;2023-11-21T13:49:02;30.30;;;12.52;;
35245;SDS011;21379;50.962;6.960;2023-11-21T13:51:32;26.58;;;12.45;;
35245;SDS011;21379;50.962;6.960;2023-11-21T13:54:05;35.63;;;12.60;;
35245;SDS011;21379;50.962;6.960;2023-11-21T13:56:36;36.40;;;13.93;;
35245;SDS011;21379;50.962;6.960;2023-11-21T13:59:04;38.72;;;14.48;;
35245;SDS011;21379;50.962;6.960;2023-11-21T14:01:39;37.55;;;14.32;;
35245;SDS011;21379;50.962;6.960;2023-11-21T14:04:19;45.80;;;15.50;;
35245;SDS011;21379;50.962;6.960;2023-11-21T14:07:00;41.38;;;15.77;;
35245;SDS011;21379;50.962;6.960;2023-11-21T14:09:48;39.08;;;15.52;;
35245;SDS011;21379;50.962;6.960;2023-11-21T14:12:16;42.50;;;14.95;;
35245;SDS011;21379;50.962;6.960;2023-11-21T14:14:43;43.75;;;15.73;;
35245;SDS011;21379;50.962;6.960;2023-11-21T14:17:12;37.88;;;15.30;;
35245;SDS011;21379;50.962;6.960;2023-11-21T14:19:39;41.50;;;15.88;;
35245;SDS011;21379;50.962;6.960;2023-11-21T14:22:08;46.50;;;17.60;;
35245;SDS011;21379;50.962;6.960;2023-11-21T14:24:35;46.28;;;16.23;;
35245;SDS011;21379;50.962;6.960;2023-11-21T14:27:02;47.25;;;16.63;;
35245;SDS011;21379;50.962;6.960;2023-11-21T14:29:32;41.45;;;17.83;;
35245;SDS011;21379;50.962;6.960;2023-11-21T14:32:03;47.88;;;17.13;;
35245;SDS011;21379;50.962;6.960;2023-11-21T14:34:30;42.70;;;15.80;;
35245;SDS011;21379;50.962;6.960;2023-11-21T14:36:57;44.90;;;16.17;;
35245;SDS011;21379;50.962;6.960;2023-11-21T14:39:24;47.53;;;18.05;;
35245;SDS011;21379;50.962;6.960;2023-11-21T14:41:53;44.22;;;16.73;;
35245;SDS011;21379;50.962;6.960;2023-11-21T14:44:21;49.78;;;16.58;;
35245;SDS011;21379;50.962;6.960;2023-11-21T14:46:52;42.13;;;15.77;;
35245;SDS011;21379;50.962;6.960;2023-11-21T14:49:21;49.97;;;18.25;;
35245;SDS011;21379;50.962;6.960;2023-11-21T14:51:51;41.42;;;16.25;;
35245;SDS011;21379;50.962;6.960;2023-11-21T14:54:26;49.72;;;18.27;;
35245;SDS011;21379;50.962;6.960;2023-11-21T14:57:05;44.03;;;15.25;;
35245;SDS011;21379;50.962;6.960;2023-11-21T14:59:36;46.83;;;16.23;;
35245;SDS011;21379;50.962;6.960;2023-11-21T15:02:03;46.55;;;16.40;;